sensor_id;sensor_type;location;lat;lon;timestamp;pressure;altitude;pressure_sealevel;temperature;humidity
19108;BME280;9686;48.832;9.126;2023-02-04T00:00:14;99381.50;;;10.68;100.00
19108;BME280;9686;48.832;9.126;2023-02-04T00:02:40;99387.44;;;10.59;100.00
19108;BME280;9686;48.832;9.126;2023-02-04T00:05:06;99387.44;;;10.59;100.00
19108;BME280;9686;48.832;9.126;2023-02-04T00:07:32;99382.97;;;10.49;100.00
19108;BME280;9686;48.832;9.126;2023-02-04T00:09:57;99370.06;;;10.58;100.00
19108;BME280;9686;48.832;9.126;2023-02-04T00:12:22;99366.50;;;10.52;100.00
19108;BME280;9686;48.832;9.126;2023-02-04T00:14:48;99373.53;;;10.57;100.00
19108;BME280;9686;48.832;9.126;2023-02-04T00:17:13;99369.28;;;10.67;100.00
19108;BME280;9686;48.832;9.126;2023-02-04T00:19:39;99369.25;;;10.64;100.00
19108;BME280;9686;48.832;9.126;2023-02-04T00:22:05;99369.25;;;10.65;100.00
19108;BME280;9686;48.832;9.126;2023-02-04T00:24:32;99376.09;;;10.54;100.00
19108;BME280;9686;48.832;9.126;2023-02-04T00:26:57;99364.81;;;10.57;100.00
19108;BME280;9686;48.832;9.126;2023-02-04T00:29:23;99375.34;;;10.66;100.00
19108;BME280;9686;48.832;9.126;2023-02-04T00:31:48;99384.09;;;10.68;100.00
19108;BME280;9686;48.832;9.126;2023-02-04T00:34:13;99388.34;;;10.61;100.00
19108;BME280;9686;48.832;9.126;2023-02-04T00:36:39;99393.53;;;10.58;100.00
19108;BME280;9686;48.832;9.126;2023-02-04T00:39:04;99389.19;;;10.60;100.00
19108;BME280;9686;48.832;9.126;2023-02-04T00:41:29;99390.84;;;10.54;100.00
19108;BME280;9686;48.832;9.126;2023-02-04T00:43:55;99392.66;;;10.59;100.00
19108;BME280;9686;48.832;9.126;2023-02-04T00:46:20;99404.00;;;10.61;100.00
19108;BME280;9686;48.832;9.126;2023-02-04T00:48:45;99409.16;;;10.57;100.00
19108;BME280;9686;48.832;9.126;2023-02-04T00:51:10;99408.13;;;10.44;100.00
19108;BME280;9686;48.832;9.126;2023-02-04T00:53:36;99409.94;;;10.51;100.00
19108;BME280;9686;48.832;9.126;2023-02-04T00:56:01;99408.22;;;10.53;100.00
19108;BME280;9686;48.832;9.126;2023-02-04T00:58:26;99414.19;;;10.43;100.00
19108;BME280;9686;48.832;9.126;2023-02-04T01:00:52;99412.47;;;10.43;100.00
19108;BME280;9686;48.832;9.126;2023-02-04T01:03:17;99413.44;;;10.52;100.00
19108;BME280;9686;48.832;9.126;2023-02-04T01:05:42;99408.38;;;10.65;100.00
19108;BME280;9686;48.832;9.126;2023-02-04T01:08:07;99417.91;;;10.62;100.00
19108;BME280;9686;48.832;9.126;2023-02-04T01:10:33;99423.00;;;10.53;100.00
19108;BME280;9686;48.832;9.126;2023-02-04T01:12:58;99429.22;;;10.64;100.00
19108;BME280;9686;48.832;9.126;2023-02-04T01:15:24;99425.78;;;10.66;100.00
19108;BME280;9686;48.832;9.126;2023-02-04T01:17:49;99415.22;;;10.56;100.00
19108;BME280;9686;48.832;9.126;2023-02-04T01:20:15;99416.16;;;10.61;100.00
19108;BME280;9686;48.832;9.126;2023-02-04T01:22:40;99420.41;;;10.54;100.00
19108;BME280;9686;48.832;9.126;2023-02-04T01:25:06;99410.75;;;10.47;100.00
19108;BME280;9686;48.832;9.126;2023-02-04T01:27:31;99420.44;;;10.57;100.00
19108;BME280;9686;48.832;9.126;2023-02-04T01:29:57;99424.75;;;10.54;100.00
19108;BME280;9686;48.832;9.126;2023-02-04T01:32:22;99428.88;;;10.39;100.00
19108;BME280;9686;48.832;9.126;2023-02-04T01:34:47;99442.00;;;10.42;100.00
19108;BME280;9686;48.832;9.126;2023-02-04T01:37:12;99421.00;;;10.35;100.00
19108;BME280;9686;48.832;9.126;2023-02-04T01:39:38;99440.19;;;10.40;100.00
19108;BME280;9686;48.832;9.126;2023-02-04T01:42:03;99437.41;;;10.28;100.00
19108;BME280;9686;48.832;9.126;2023-02-04T01:44:29;99435.47;;;10.16;100.00
19108;BME280;9686;48.832;9.126;2023-02-04T01:46:55;99445.94;;;10.17;100.00
19108;BME280;9686;48.832;9.126;2023-02-04T01:49:21;99441.53;;;10.15;100.00
19108;BME280;9686;48.832;9.126;2023-02-04T01:51:46;99438.00;;;10.13;100.00
19108;BME280;9686;48.832;9.126;2023-02-04T01:54:13;99431.06;;;10.12;100.00
19108;BME280;9686;48.832;9.126;2023-02-04T01:56:42;99429.56;;;10.26;100.00
19108;BME280;9686;48.832;9.126;2023-02-04T01:59:11;99435.59;;;10.22;100.00
19108;BME280;9686;48.832;9.126;2023-02-04T02:01:42;99433.84;;;10.21;100.00
19108;BME280;9686;48.832;9.126;2023-02-04T02:04:09;99432.72;;;10.08;100.00
19108;BME280;9686;48.832;9.126;2023-02-04T02:06:37;99433.53;;;10.04;100.00
19108;BME280;9686;48.832;9.126;2023-02-04T02:09:04;99430.06;;;10.04;100.00
19108;BME280;9686;48.832;9.126;2023-02-04T02:11:29;99452.19;;;10.27;100.00
19108;BME280;9686;48.832;9.126;2023-02-04T02:13:55;99452.19;;;10.27;100.00
19108;BME280;9686;48.832;9.126;2023-02-04T02:16:21;99458.53;;;9.92;100.00
19108;BME280;9686;48.832;9.126;2023-02-04T02:18:46;99457.91;;;10.08;100.00
19108;BME280;9686;48.832;9.126;2023-02-04T02:21:13;99451.06;;;10.14;100.00
19108;BME280;9686;48.832;9.126;2023-02-04T02:23:50;99456.34;;;10.17;100.00
19108;BME280;9686;48.832;9.126;2023-02-04T02:26:17;99469.94;;;10.00;100.00
19108;BME280;9686;48.832;9.126;2023-02-04T02:28:45;99455.25;;;10.03;100.00
19108;BME280;9686;48.832;9.126;2023-02-04T02:31:15;99460.44;;;10.02;100.00
19108;BME280;9686;48.832;9.126;2023-02-04T02:33:41;99474.50;;;10.13;100.00
19108;BME280;9686;48.832;9.126;2023-02-04T02:36:07;99482.13;;;10.01;100.00
19108;BME280;9686;48.832;9.126;2023-02-04T02:38:33;99493.81;;;10.23;100.00
19108;BME280;9686;48.832;9.126;2023-02-04T02:40:58;99492.09;;;10.23;100.00
19108;BME280;9686;48.832;9.126;2023-02-04T02:43:25;99479.38;;;9.92;100.00
19108;BME280;9686;48.832;9.126;2023-02-04T02:45:51;99470.91;;;10.06;100.00
19108;BME280;9686;48.832;9.126;2023-02-04T02:48:17;99468.22;;;10.00;100.00
19108;BME280;9686;48.832;9.126;2023-02-04T02:50:43;99475.13;;;9.98;100.00
19108;BME280;9686;48.832;9.126;2023-02-04T02:53:11;99470.38;;;10.24;100.00
19108;BME280;9686;48.832;9.126;2023-02-04T02:55:37;99475.31;;;10.09;100.00
19108;BME280;9686;48.832;9.126;2023-02-04T02:58:03;99468.28;;;10.05;100.00
19108;BME280;9686;48.832;9.126;2023-02-04T03:00:29;99472.66;;;10.06;100.00
19108;BME280;9686;48.832;9.126;2023-02-04T03:03:16;99469.97;;;10.01;100.00
19108;BME280;9686;48.832;9.126;2023-02-04T03:05:46;99475.19;;;10.01;100.00
19108;BME280;9686;48.832;9.126;2023-02-04T03:08:13;99490.75;;;9.98;100.00
19108;BME280;9686;48.832;9.126;2023-02-04T03:10:40;99492.66;;;10.08;100.00
19108;BME280;9686;48.832;9.126;2023-02-04T03:13:06;99502.09;;;10.02;100.00
19108;BME280;9686;48.832;9.126;2023-02-04T03:15:31;99515.38;;;10.15;100.00
19108;BME280;9686;48.832;9.126;2023-02-04T03:17:58;99525.19;;;10.29;100.00
19108;BME280;9686;48.832;9.126;2023-02-04T03:20:26;99523.47;;;10.31;100.00
19108;BME280;9686;48.832;9.126;2023-02-04T03:22:52;99528.59;;;10.26;100.00
19108;BME280;9686;48.832;9.126;2023-02-04T03:25:18;99533.81;;;10.26;100.00
19108;BME280;9686;48.832;9.126;2023-02-04T03:27:45;99545.84;;;10.19;100.00
19108;BME280;9686;48.832;9.126;2023-02-04T03:30:10;99544.13;;;10.20;100.00
19108;BME280;9686;48.832;9.126;2023-02-04T03:32:35;99536.88;;;10.04;100.00
19108;BME280;9686;48.832;9.126;2023-02-04T03:35:01;99536.06;;;10.06;100.00
19108;BME280;9686;48.832;9.126;2023-02-04T03:37:26;99546.53;;;10.11;100.00
19108;BME280;9686;48.832;9.126;2023-02-04T03:39:51;99543.50;;;9.86;100.00
19108;BME280;9686;48.832;9.126;2023-02-04T03:42:17;99547.25;;;10.01;100.00
19108;BME280;9686;48.832;9.126;2023-02-04T03:44:42;99546.53;;;10.11;100.00
19108;BME280;9686;48.832;9.126;2023-02-04T03:47:08;99542.44;;;9.75;100.00
19108;BME280;9686;48.832;9.126;2023-02-04T03:49:33;99542.78;;;9.94;100.00
19108;BME280;9686;48.832;9.126;2023-02-04T03:51:59;99553.91;;;9.85;100.00
19108;BME280;9686;48.832;9.126;2023-02-04T03:54:25;99549.59;;;9.87;100.00
19108;BME280;9686;48.832;9.126;2023-02-04T03:56:50;99556.28;;;9.73;100.00
19108;BME280;9686;48.832;9.126;2023-02-04T03:59:15;99559.00;;;9.79;100.00
19108;BME280;9686;48.832;9.126;2023-02-04T04:01:41;99557.28;;;9.81;100.00
19108;BME280;9686;48.832;9.126;2023-02-04T04:04:06;99558.16;;;9.81;100.00
19108;BME280;9686;48.832;9.126;2023-02-04T04:06:31;99552.88;;;9.77;100.00
19108;BME280;9686;48.832;9.126;2023-02-04T04:08:56;99557.16;;;9.73;100.00
19108;BME280;9686;48.832;9.126;2023-02-04T04:11:22;99559.88;;;9.79;100.00
19108;BME280;9686;48.832;9.126;2023-02-04T04:13:47;99573.72;;;9.77;100.00
19108;BME280;9686;48.832;9.126;2023-02-04T04:16:12;99578.03;;;9.75;100.00
19108;BME280;9686;48.832;9.126;2023-02-04T04:18:38;99580.72;;;9.81;100.00
19108;BME280;9686;48.832;9.126;2023-02-04T04:21:03;99574.94;;;9.94;100.00
19108;BME280;9686;48.832;9.126;2023-02-04T04:23:28;99575.88;;;9.99;100.00
19108;BME280;9686;48.832;9.126;2023-02-04T04:25:54;99583.94;;;10.13;100.00
19108;BME280;9686;48.832;9.126;2023-02-04T04:28:19;99594.22;;;10.05;100.00
19108;BME280;9686;48.832;9.126;2023-02-04T04:30:44;99590.00;;;10.12;100.00
19108;BME280;9686;48.832;9.126;2023-02-04T04:33:09;99601.28;;;10.12;100.00
19108;BME280;9686;48.832;9.126;2023-02-04T04:35:35;99596.75;;;10.01;100.00
19108;BME280;9686;48.832;9.126;2023-02-04T04:38:01;99604.78;;;10.13;100.00
19108;BME280;9686;48.832;9.126;2023-02-04T04:40:26;99596.25;;;10.20;100.00
19108;BME280;9686;48.832;9.126;2023-02-04T04:42:52;99610.84;;;10.12;100.00
19108;BME280;9686;48.832;9.126;2023-02-04T04:45:17;99604.13;;;10.22;100.00
19108;BME280;9686;48.832;9.126;2023-02-04T04:47:44;99616.19;;;10.18;100.00
19108;BME280;9686;48.832;9.126;2023-02-04T04:50:09;99613.72;;;10.24;100.00
19108;BME280;9686;48.832;9.126;2023-02-04T04:52:34;99616.31;;;10.24;100.00
19108;BME280;9686;48.832;9.126;2023-02-04T04:55:00;99612.94;;;10.30;100.00
19108;BME280;9686;48.832;9.126;2023-02-04T04:57:25;99614.63;;;10.28;100.00
19108;BME280;9686;48.832;9.126;2023-02-04T04:59:50;99614.63;;;10.26;100.00
19108;BME280;9686;48.832;9.126;2023-02-04T05:02:15;99616.22;;;10.19;100.00
19108;BME280;9686;48.832;9.126;2023-02-04T05:04:41;99614.16;;;10.03;100.00
19108;BME280;9686;48.832;9.126;2023-02-04T05:07:06;99617.44;;;9.93;100.00
19108;BME280;9686;48.832;9.126;2023-02-04T05:09:31;99615.84;;;10.01;100.00
19108;BME280;9686;48.832;9.126;2023-02-04T05:11:57;99608.59;;;9.85;100.00
19108;BME280;9686;48.832;9.126;2023-02-04T05:14:23;99606.16;;;9.93;100.00
19108;BME280;9686;48.832;9.126;2023-02-04T05:16:48;99605.22;;;9.89;100.00
19108;BME280;9686;48.832;9.126;2023-02-04T05:19:13;99607.06;;;9.95;100.00
19108;BME280;9686;48.832;9.126;2023-02-04T05:21:39;99608.97;;;10.05;100.00
19108;BME280;9686;48.832;9.126;2023-02-04T05:24:05;99607.31;;;10.08;100.00
19108;BME280;9686;48.832;9.126;2023-02-04T05:26:33;99614.22;;;10.06;100.00
19108;BME280;9686;48.832;9.126;2023-02-04T05:28:58;99617.56;;;9.99;100.00
19108;BME280;9686;48.832;9.126;2023-02-04T05:31:27;99628.84;;;10.00;100.00
19108;BME280;9686;48.832;9.126;2023-02-04T05:33:53;99626.78;;;9.83;100.00
19108;BME280;9686;48.832;9.126;2023-02-04T05:36:19;99634.78;;;9.91;100.00
19108;BME280;9686;48.832;9.126;2023-02-04T05:38:44;99621.75;;;9.91;100.00
19108;BME280;9686;48.832;9.126;2023-02-04T05:41:09;99626.78;;;9.83;100.00
19108;BME280;9686;48.832;9.126;2023-02-04T05:43:35;99627.66;;;9.82;100.00
19108;BME280;9686;48.832;9.126;2023-02-04T05:46:01;99624.16;;;9.82;100.00
19108;BME280;9686;48.832;9.126;2023-02-04T05:48:26;99627.59;;;9.79;100.00
19108;BME280;9686;48.832;9.126;2023-02-04T05:50:52;99619.63;;;9.72;100.00
19108;BME280;9686;48.832;9.126;2023-02-04T05:53:17;99621.47;;;9.77;100.00
19108;BME280;9686;48.832;9.126;2023-02-04T05:55:42;99626.75;;;9.82;100.00
19108;BME280;9686;48.832;9.126;2023-02-04T05:58:08;99625.78;;;9.75;100.00
19108;BME280;9686;48.832;9.126;2023-02-04T06:00:33;99631.94;;;9.80;100.00
19108;BME280;9686;48.832;9.126;2023-02-04T06:02:58;99634.44;;;9.74;100.00
19108;BME280;9686;48.832;9.126;2023-02-04T06:05:24;99647.66;;;9.85;100.00
19108;BME280;9686;48.832;9.126;2023-02-04T06:07:50;99667.53;;;9.80;100.00
19108;BME280;9686;48.832;9.126;2023-02-04T06:10:16;99669.97;;;9.72;100.00
19108;BME280;9686;48.832;9.126;2023-02-04T06:12:41;99658.75;;;9.75;100.00
19108;BME280;9686;48.832;9.126;2023-02-04T06:15:07;99661.22;;;9.69;100.00
19108;BME280;9686;48.832;9.126;2023-02-04T06:17:32;99665.78;;;9.79;100.00
19108;BME280;9686;48.832;9.126;2023-02-04T06:19:57;99675.22;;;9.74;100.00
19108;BME280;9686;48.832;9.126;2023-02-04T06:22:23;99679.44;;;9.67;100.00
19108;BME280;9686;48.832;9.126;2023-02-04T06:24:50;99677.06;;;9.79;100.00
19108;BME280;9686;48.832;9.126;2023-02-04T06:27:15;99686.41;;;9.68;100.00
19108;BME280;9686;48.832;9.126;2023-02-04T06:29:48;99693.31;;;9.68;100.00
19108;BME280;9686;48.832;9.126;2023-02-04T06:32:13;99691.88;;;9.82;100.00
19108;BME280;9686;48.832;9.126;2023-02-04T06:34:39;99685.59;;;9.72;100.00
19108;BME280;9686;48.832;9.126;2023-02-04T06:37:04;99692.63;;;9.76;100.00
19108;BME280;9686;48.832;9.126;2023-02-04T06:39:29;99687.91;;;9.58;100.00
19108;BME280;9686;48.832;9.126;2023-02-04T06:41:54;99683.75;;;9.67;100.00
19108;BME280;9686;48.832;9.126;2023-02-04T06:44:20;99684.78;;;9.75;100.00
19108;BME280;9686;48.832;9.126;2023-02-04T06:46:45;99690.75;;;9.69;100.00
19108;BME280;9686;48.832;9.126;2023-02-04T06:49:10;99697.69;;;9.69;100.00
19108;BME280;9686;48.832;9.126;2023-02-04T06:51:36;99700.41;;;9.75;100.00
19108;BME280;9686;48.832;9.126;2023-02-04T06:54:01;99710.81;;;9.73;100.00
19108;BME280;9686;48.832;9.126;2023-02-04T06:56:26;99703.22;;;9.85;100.00
19108;BME280;9686;48.832;9.126;2023-02-04T06:58:53;99711.81;;;9.80;100.00
19108;BME280;9686;48.832;9.126;2023-02-04T07:01:19;99711.53;;;9.66;100.00
19108;BME280;9686;48.832;9.126;2023-02-04T07:03:44;99713.09;;;9.59;100.00
19108;BME280;9686;48.832;9.126;2023-02-04T07:06:09;99715.75;;;9.63;100.00
19108;BME280;9686;48.832;9.126;2023-02-04T07:08:34;99710.75;;;9.70;100.00
19108;BME280;9686;48.832;9.126;2023-02-04T07:11:00;99721.72;;;9.57;100.00
19108;BME280;9686;48.832;9.126;2023-02-04T07:13:25;99726.47;;;9.75;100.00
19108;BME280;9686;48.832;9.126;2023-02-04T07:15:50;99730.50;;;9.62;100.00
19108;BME280;9686;48.832;9.126;2023-02-04T07:18:17;99742.78;;;9.66;100.00
19108;BME280;9686;48.832;9.126;2023-02-04T07:20:44;99757.53;;;9.67;100.00
19108;BME280;9686;48.832;9.126;2023-02-04T07:23:09;99756.44;;;9.57;100.00
19108;BME280;9686;48.832;9.126;2023-02-04T07:25:34;99757.09;;;9.47;100.00
19108;BME280;9686;48.832;9.126;2023-02-04T07:27:59;99760.09;;;9.64;100.00
19108;BME280;9686;48.832;9.126;2023-02-04T07:30:27;99764.50;;;9.68;100.00
19108;BME280;9686;48.832;9.126;2023-02-04T07:32:52;99772.59;;;9.80;100.00
19108;BME280;9686;48.832;9.126;2023-02-04T07:35:18;99768.22;;;9.79;100.00
19108;BME280;9686;48.832;9.126;2023-02-04T07:37:43;99766.31;;;9.71;100.00
19108;BME280;9686;48.832;9.126;2023-02-04T07:40:10;99767.34;;;9.79;100.00
19108;BME280;9686;48.832;9.126;2023-02-04T07:42:36;99766.34;;;9.72;100.00
19108;BME280;9686;48.832;9.126;2023-02-04T07:45:02;99770.69;;;9.73;100.00
19108;BME280;9686;48.832;9.126;2023-02-04T07:47:27;99774.41;;;9.84;100.00
19108;BME280;9686;48.832;9.126;2023-02-04T07:49:52;99780.38;;;9.79;100.00
19108;BME280;9686;48.832;9.126;2023-02-04T07:52:21;99779.25;;;9.68;100.00
19108;BME280;9686;48.832;9.126;2023-02-04T07:54:46;99779.09;;;9.62;100.00
19108;BME280;9686;48.832;9.126;2023-02-04T07:57:12;99781.81;;;9.66;100.00
19108;BME280;9686;48.832;9.126;2023-02-04T07:59:37;99792.00;;;9.57;100.00
19108;BME280;9686;48.832;9.126;2023-02-04T08:02:02;99794.47;;;9.51;100.00
19108;BME280;9686;48.832;9.126;2023-02-04T08:04:27;99806.88;;;9.63;100.00
19108;BME280;9686;48.832;9.126;2023-02-04T08:06:53;99801.19;;;9.79;100.00
19108;BME280;9686;48.832;9.126;2023-02-04T08:09:18;99813.78;;;9.61;100.00
19108;BME280;9686;48.832;9.126;2023-02-04T08:11:43;99807.09;;;9.70;100.00
19108;BME280;9686;48.832;9.126;2023-02-04T08:14:09;99802.66;;;9.66;100.00
19108;BME280;9686;48.832;9.126;2023-02-04T08:16:34;99808.94;;;9.76;100.00
19108;BME280;9686;48.832;9.126;2023-02-04T08:18:59;99815.84;;;9.74;100.00
19108;BME280;9686;48.832;9.126;2023-02-04T08:21:24;99808.97;;;9.77;100.00
19108;BME280;9686;48.832;9.126;2023-02-04T08:23:50;99811.47;;;9.73;100.00
19108;BME280;9686;48.832;9.126;2023-02-04T08:26:15;99815.88;;;9.75;100.00
19108;BME280;9686;48.832;9.126;2023-02-04T08:28:40;99817.50;;;9.70;100.00
19108;BME280;9686;48.832;9.126;2023-02-04T08:31:06;99823.47;;;9.65;100.00
19108;BME280;9686;48.832;9.126;2023-02-04T08:33:35;99835.03;;;9.77;100.00
19108;BME280;9686;48.832;9.126;2023-02-04T08:36:01;99826.34;;;9.77;100.00
19108;BME280;9686;48.832;9.126;2023-02-04T08:38:26;99827.09;;;9.73;100.00
19108;BME280;9686;48.832;9.126;2023-02-04T08:40:51;99835.09;;;9.80;100.00
19108;BME280;9686;48.832;9.126;2023-02-04T08:43:16;99832.44;;;9.79;100.00
19108;BME280;9686;48.832;9.126;2023-02-04T08:45:42;99836.97;;;9.87;100.00
19108;BME280;9686;48.832;9.126;2023-02-04T08:48:07;99832.97;;;10.02;100.00
19108;BME280;9686;48.832;9.126;2023-02-04T08:50:33;99835.38;;;9.93;100.00
19108;BME280;9686;48.832;9.126;2023-02-04T08:52:59;99839.19;;;10.08;100.00
19108;BME280;9686;48.832;9.126;2023-02-04T08:55:24;99845.97;;;10.00;100.00
19108;BME280;9686;48.832;9.126;2023-02-04T08:57:49;99849.94;;;10.21;100.00
19108;BME280;9686;48.832;9.126;2023-02-04T09:00:15;99856.59;;;10.09;100.00
19108;BME280;9686;48.832;9.126;2023-02-04T09:02:40;99862.03;;;10.18;100.00
19108;BME280;9686;48.832;9.126;2023-02-04T09:05:06;99861.13;;;10.16;100.00
19108;BME280;9686;48.832;9.126;2023-02-04T09:07:31;99867.72;;;10.02;100.00
19108;BME280;9686;48.832;9.126;2023-02-04T09:09:56;99860.94;;;10.10;100.00
19108;BME280;9686;48.832;9.126;2023-02-04T09:12:22;99878.28;;;10.08;100.00
19108;BME280;9686;48.832;9.126;2023-02-04T09:14:47;99863.59;;;10.12;100.00
19108;BME280;9686;48.832;9.126;2023-02-04T09:17:12;99862.84;;;10.16;100.00
19108;BME280;9686;48.832;9.126;2023-02-04T09:19:38;99862.78;;;10.14;100.00
19108;BME280;9686;48.832;9.126;2023-02-04T09:22:03;99865.34;;;10.13;100.00
19108;BME280;9686;48.832;9.126;2023-02-04T09:24:28;99870.84;;;10.24;100.00
19108;BME280;9686;48.832;9.126;2023-02-04T09:26:53;99880.25;;;10.17;100.00
19108;BME280;9686;48.832;9.126;2023-02-04T09:29:19;99886.03;;;10.05;100.00
19108;BME280;9686;48.832;9.126;2023-02-04T09:31:44;99887.47;;;10.29;100.00
19108;BME280;9686;48.832;9.126;2023-02-04T09:34:10;99891.06;;;10.34;100.00
19108;BME280;9686;48.832;9.126;2023-02-04T09:36:35;99885.06;;;10.38;100.00
19108;BME280;9686;48.832;9.126;2023-02-04T09:39:06;99888.25;;;10.65;100.00
19108;BME280;9686;48.832;9.126;2023-02-04T09:41:33;99889.31;;;10.73;100.00
19108;BME280;9686;48.832;9.126;2023-02-04T09:43:59;99891.81;;;10.69;100.00
19108;BME280;9686;48.832;9.126;2023-02-04T09:46:25;99901.75;;;10.46;100.00
19108;BME280;9686;48.832;9.126;2023-02-04T09:48:57;99902.84;;;10.57;100.00
19108;BME280;9686;48.832;9.126;2023-02-04T09:51:26;99903.09;;;10.68;100.00
19108;BME280;9686;48.832;9.126;2023-02-04T09:53:54;99914.31;;;10.65;100.00
19108;BME280;9686;48.832;9.126;2023-02-04T09:56:24;99909.81;;;10.19;95.26
19108;BME280;9686;48.832;9.126;2023-02-04T09:58:50;99914.19;;;9.84;98.79
19108;BME280;9686;48.832;9.126;2023-02-04T10:01:19;99910.66;;;10.18;100.00
19108;BME280;9686;48.832;9.126;2023-02-04T10:03:46;99908.06;;;10.18;93.30
19108;BME280;9686;48.832;9.126;2023-02-04T10:06:18;99905.94;;;10.39;95.28
19108;BME280;9686;48.832;9.126;2023-02-04T10:08:45;99902.03;;;10.60;94.31
19108;BME280;9686;48.832;9.126;2023-02-04T10:11:11;99904.94;;;10.73;96.31
19108;BME280;9686;48.832;9.126;2023-02-04T10:13:40;99901.63;;;10.82;94.59
19108;BME280;9686;48.832;9.126;2023-02-04T10:16:27;99900.31;;;10.60;81.78
19108;BME280;9686;48.832;9.126;2023-02-04T10:19:04;99906.84;;;10.82;88.04
19108;BME280;9686;48.832;9.126;2023-02-04T10:21:32;99909.38;;;10.77;90.05
19108;BME280;9686;48.832;9.126;2023-02-04T10:24:00;99907.38;;;10.66;96.20
19108;BME280;9686;48.832;9.126;2023-02-04T10:26:28;99898.91;;;10.35;82.83
19108;BME280;9686;48.832;9.126;2023-02-04T10:29:02;99895.59;;;10.42;89.42
19108;BME280;9686;48.832;9.126;2023-02-04T10:31:33;99898.13;;;10.39;92.77
19108;BME280;9686;48.832;9.126;2023-02-04T10:34:15;99904.09;;;10.74;94.32
19108;BME280;9686;48.832;9.126;2023-02-04T10:36:44;99898.75;;;11.12;86.55
19108;BME280;9686;48.832;9.126;2023-02-04T10:41:37;99889.63;;;11.37;80.81
19108;BME280;9686;48.832;9.126;2023-02-04T10:44:15;99886.25;;;11.42;83.47
19108;BME280;9686;48.832;9.126;2023-02-04T10:46:41;99891.56;;;11.47;82.85
19108;BME280;9686;48.832;9.126;2023-02-04T10:49:18;99898.38;;;11.39;83.55
19108;BME280;9686;48.832;9.126;2023-02-04T10:51:43;99890.97;;;11.15;82.35
19108;BME280;9686;48.832;9.126;2023-02-04T10:54:11;99893.81;;;10.82;83.55
19108;BME280;9686;48.832;9.126;2023-02-04T10:57:23;99891.94;;;10.75;86.78
19108;BME280;9686;48.832;9.126;2023-02-04T11:00:02;99892.44;;;10.57;86.66
19108;BME280;9686;48.832;9.126;2023-02-04T11:02:41;99901.00;;;10.52;87.58
19108;BME280;9686;48.832;9.126;2023-02-04T11:05:13;99900.69;;;10.77;85.40
19108;BME280;9686;48.832;9.126;2023-02-04T11:07:39;99911.72;;;10.65;86.56
19108;BME280;9686;48.832;9.126;2023-02-04T11:10:05;99908.88;;;10.53;86.25
19108;BME280;9686;48.832;9.126;2023-02-04T11:12:42;99911.56;;;10.58;84.83
19108;BME280;9686;48.832;9.126;2023-02-04T11:15:47;99914.56;;;10.76;86.64
19108;BME280;9686;48.832;9.126;2023-02-04T11:20:44;99911.50;;;10.95;89.99
19108;BME280;9686;48.832;9.126;2023-02-04T11:23:36;99902.94;;;11.02;91.00
19108;BME280;9686;48.832;9.126;2023-02-04T11:26:16;99894.38;;;11.11;90.15
19108;BME280;9686;48.832;9.126;2023-02-04T11:33:49;99895.66;;;11.33;77.49
19108;BME280;9686;48.832;9.126;2023-02-04T11:36:15;99901.84;;;11.38;79.33
19108;BME280;9686;48.832;9.126;2023-02-04T11:38:46;99898.50;;;11.45;77.53
19108;BME280;9686;48.832;9.126;2023-02-04T11:41:28;99901.88;;;11.41;74.38
19108;BME280;9686;48.832;9.126;2023-02-04T11:43:55;99905.31;;;11.37;75.62
19108;BME280;9686;48.832;9.126;2023-02-04T11:46:22;99904.06;;;11.18;74.44
19108;BME280;9686;48.832;9.126;2023-02-04T11:48:52;99900.97;;;10.92;76.01
19108;BME280;9686;48.832;9.126;2023-02-04T11:51:20;99905.81;;;11.18;75.81
19108;BME280;9686;48.832;9.126;2023-02-04T11:53:51;99894.72;;;11.29;84.98
19108;BME280;9686;48.832;9.126;2023-02-04T11:56:17;99896.06;;;11.56;79.66
19108;BME280;9686;48.832;9.126;2023-02-04T11:58:43;99896.31;;;11.20;69.08
19108;BME280;9686;48.832;9.126;2023-02-04T12:01:22;99899.59;;;11.59;70.99
19108;BME280;9686;48.832;9.126;2023-02-04T12:03:54;99901.50;;;11.69;67.98
19108;BME280;9686;48.832;9.126;2023-02-04T12:06:21;99890.47;;;11.83;68.16
19108;BME280;9686;48.832;9.126;2023-02-04T12:08:47;99898.28;;;11.81;66.04
19108;BME280;9686;48.832;9.126;2023-02-04T12:11:25;99900.00;;;11.81;62.04
19108;BME280;9686;48.832;9.126;2023-02-04T12:13:55;99904.69;;;11.50;61.82
19108;BME280;9686;48.832;9.126;2023-02-04T12:16:22;99897.41;;;11.82;64.62
19108;BME280;9686;48.832;9.126;2023-02-04T12:18:48;99900.13;;;11.88;60.99
19108;BME280;9686;48.832;9.126;2023-02-04T12:21:14;99900.94;;;11.84;58.03
19108;BME280;9686;48.832;9.126;2023-02-04T12:23:39;99899.56;;;12.08;63.29
19108;BME280;9686;48.832;9.126;2023-02-04T12:26:06;99901.06;;;11.93;61.51
19108;BME280;9686;48.832;9.126;2023-02-04T12:28:32;99902.09;;;12.03;60.96
19108;BME280;9686;48.832;9.126;2023-02-04T12:30:57;99905.59;;;12.03;61.21
19108;BME280;9686;48.832;9.126;2023-02-04T12:33:23;99909.84;;;11.97;57.32
19108;BME280;9686;48.832;9.126;2023-02-04T12:35:48;99905.59;;;12.02;60.55
19108;BME280;9686;48.832;9.126;2023-02-04T12:38:14;99900.16;;;11.91;63.34
19108;BME280;9686;48.832;9.126;2023-02-04T12:40:39;99910.19;;;11.67;61.51
19108;BME280;9686;48.832;9.126;2023-02-04T12:43:04;99909.41;;;11.71;61.75
19108;BME280;9686;48.832;9.126;2023-02-04T12:45:30;99906.31;;;11.95;64.84
19108;BME280;9686;48.832;9.126;2023-02-04T12:47:56;99913.22;;;11.90;64.98
19108;BME280;9686;48.832;9.126;2023-02-04T12:50:25;99914.56;;;11.68;63.64
19108;BME280;9686;48.832;9.126;2023-02-04T12:52:55;99915.88;;;11.44;65.01
19108;BME280;9686;48.832;9.126;2023-02-04T12:55:22;99914.84;;;11.35;64.64
19108;BME280;9686;48.832;9.126;2023-02-04T12:57:48;99923.84;;;11.51;61.77
19108;BME280;9686;48.832;9.126;2023-02-04T13:00:14;99919.63;;;11.12;65.97
19108;BME280;9686;48.832;9.126;2023-02-04T13:02:40;99914.91;;;11.39;70.50
19108;BME280;9686;48.832;9.126;2023-02-04T13:05:06;99921.44;;;11.16;73.77
19108;BME280;9686;48.832;9.126;2023-02-04T13:07:40;99916.78;;;10.98;76.86
19108;BME280;9686;48.832;9.126;2023-02-04T13:10:08;99919.63;;;11.12;76.21
19108;BME280;9686;48.832;9.126;2023-02-04T13:12:33;99909.91;;;11.03;79.45
19108;BME280;9686;48.832;9.126;2023-02-04T13:14:59;99916.00;;;11.04;76.50